createdAt,value
2018-04-14T00:00:53.311Z,0.00
2018-04-14T00:01:53.301Z,0.00
2018-04-14T00:02:53.294Z,0.00
2018-04-14T00:03:53.290Z,0.00
2018-04-14T00:04:53.287Z,0.00
2018-04-14T00:05:53.294Z,0.00
2018-04-14T00:06:53.292Z,0.00
2018-04-14T00:07:53.291Z,0.00
2018-04-14T00:08:53.285Z,0.00
2018-04-14T00:09:53.276Z,0.00
2018-04-14T00:10:53.266Z,0.00
2018-04-14T00:11:53.264Z,0.00
2018-04-14T00:12:53.262Z,0.00
2018-04-14T00:13:53.269Z,0.00
2018-04-14T00:14:53.255Z,0.00
2018-04-14T00:15:53.270Z,0.00
2018-04-14T00:16:53.246Z,0.00
2018-04-14T00:17:53.242Z,0.00
2018-04-14T00:18:53.239Z,0.00
2018-04-14T00:19:53.248Z,0.00
2018-04-14T00:20:53.233Z,0.00
2018-04-14T00:21:53.228Z,0.00
2018-04-14T00:22:53.235Z,0.00
2018-04-14T00:23:53.219Z,0.00
2018-04-14T00:24:53.219Z,0.00
2018-04-14T00:25:53.233Z,0.00
2018-04-14T00:26:53.222Z,0.00
2018-04-14T00:27:53.221Z,0.00
2018-04-14T00:28:53.205Z,0.00
2018-04-14T00:29:53.211Z,0.00
2018-04-14T00:30:53.197Z,0.00
2018-04-14T00:31:53.205Z,0.00
2018-04-14T00:32:53.191Z,0.00
2018-04-14T00:33:53.190Z,0.00
2018-04-14T00:34:53.185Z,0.00
2018-04-14T00:35:53.193Z,0.00
2018-04-14T00:36:53.188Z,0.00
2018-04-14T00:37:53.185Z,0.00
2018-04-14T00:38:53.184Z,0.00
2018-04-14T00:39:53.164Z,0.00
2018-04-14T00:40:53.162Z,0.00
2018-04-14T00:41:53.173Z,0.00
2018-04-14T00:42:53.157Z,0.00
2018-04-14T00:43:53.153Z,0.00
2018-04-14T00:44:53.185Z,0.00
2018-04-14T00:45:53.150Z,0.00
2018-04-14T00:46:53.145Z,0.00
2018-04-14T00:47:53.138Z,0.00
2018-04-14T00:48:53.188Z,0.00
2018-04-14T00:49:53.160Z,0.00
2018-04-14T00:50:53.135Z,0.00
2018-04-14T00:51:53.138Z,0.00
2018-04-14T00:52:53.121Z,0.00
2018-04-14T00:53:53.132Z,0.00
2018-04-14T00:54:53.126Z,0.00
2018-04-14T00:55:53.114Z,0.00
2018-04-14T00:56:53.124Z,0.00
2018-04-14T00:57:53.110Z,0.00
2018-04-14T00:58:53.103Z,0.00
2018-04-14T00:59:53.113Z,0.00
2018-04-14T01:00:53.097Z,0.00
2018-04-14T01:01:53.097Z,0.00
2018-04-14T01:02:53.092Z,0.00
2018-04-14T01:03:53.110Z,0.00
2018-04-14T01:04:53.082Z,0.00
2018-04-14T01:05:53.080Z,0.00
2018-04-14T01:06:53.077Z,0.00
2018-04-14T01:07:53.099Z,0.00
2018-04-14T01:08:53.074Z,0.00
2018-04-14T01:09:53.084Z,0.00
2018-04-14T01:10:53.068Z,0.00
2018-04-14T01:11:53.062Z,0.00
2018-04-14T01:12:53.066Z,0.00
2018-04-14T01:13:53.060Z,0.00
2018-04-14T01:14:53.054Z,0.00
2018-04-14T01:15:53.053Z,0.00
2018-04-14T01:16:53.049Z,0.00
2018-04-14T01:17:53.056Z,0.00
2018-04-14T01:18:53.040Z,0.00
2018-04-14T01:19:53.040Z,0.00
2018-04-14T01:20:53.034Z,0.00
2018-04-14T01:21:53.047Z,0.00
2018-04-14T01:22:53.027Z,0.00
2018-04-14T01:23:53.025Z,0.00
2018-04-14T01:24:53.032Z,0.00
2018-04-14T01:25:53.020Z,0.00
2018-04-14T01:26:53.027Z,0.00
2018-04-14T01:27:53.026Z,0.00
2018-04-14T01:28:53.010Z,0.00
2018-04-14T01:29:53.018Z,0.00
2018-04-14T01:30:53.012Z,0.00
2018-04-14T01:31:53.011Z,0.00
2018-04-14T01:32:53.001Z,0.00
2018-04-14T01:33:52.992Z,0.00
2018-04-14T01:34:52.990Z,0.00
2018-04-14T01:35:52.991Z,0.00
2018-04-14T01:36:52.995Z,0.00
2018-04-14T01:37:52.981Z,0.00
2018-04-14T01:38:52.982Z,0.00
2018-04-14T01:39:52.992Z,0.00
2018-04-14T01:40:52.971Z,0.00
2018-04-14T01:41:52.968Z,0.00
2018-04-14T01:42:52.966Z,0.00
2018-04-14T01:43:52.972Z,0.00
2018-04-14T01:44:52.981Z,0.00
2018-04-14T01:45:52.980Z,0.00
2018-04-14T01:46:52.963Z,0.00
2018-04-14T01:47:52.953Z,0.00
2018-04-14T01:48:52.951Z,0.00
2018-04-14T01:49:52.950Z,0.00
2018-04-14T01:50:52.957Z,0.00
2018-04-14T01:51:52.950Z,0.00
2018-04-14T01:52:52.951Z,0.00
2018-04-14T01:53:52.941Z,0.00
2018-04-14T01:54:52.944Z,0.00
2018-04-14T01:55:52.932Z,0.00
2018-04-14T01:56:52.937Z,0.00
2018-04-14T01:57:52.935Z,0.00
2018-04-14T01:58:52.916Z,0.00
2018-04-14T01:59:52.943Z,0.00
2018-04-14T02:00:52.921Z,0.00
2018-04-14T02:01:52.920Z,0.00
2018-04-14T02:02:52.908Z,0.00
2018-04-14T02:03:52.915Z,0.00
2018-04-14T02:04:52.900Z,0.00
2018-04-14T02:05:52.913Z,0.00
2018-04-14T02:06:52.895Z,0.00
2018-04-14T02:07:52.915Z,0.00
2018-04-14T02:08:52.895Z,0.00
2018-04-14T02:09:52.893Z,0.00
2018-04-14T02:10:52.884Z,0.00
2018-04-14T02:11:52.887Z,0.00
2018-04-14T02:12:52.901Z,0.00
2018-04-14T02:13:52.871Z,0.00
2018-04-14T02:14:52.868Z,0.00
2018-04-14T02:15:52.881Z,0.00
2018-04-14T02:16:52.876Z,0.00
2018-04-14T02:17:52.871Z,0.00
2018-04-14T02:18:52.868Z,0.00
2018-04-14T02:19:52.865Z,0.00
2018-04-14T02:20:52.861Z,0.00
2018-04-14T02:21:52.847Z,0.00
2018-04-14T02:22:52.864Z,0.00
2018-04-14T02:23:52.839Z,0.00
2018-04-14T02:24:52.836Z,0.00
2018-04-14T02:25:52.854Z,0.00
2018-04-14T02:26:52.827Z,0.00
2018-04-14T02:27:52.831Z,0.00
2018-04-14T02:28:52.835Z,0.00
2018-04-14T02:29:52.832Z,0.00
2018-04-14T02:30:52.829Z,0.00
2018-04-14T02:31:52.829Z,0.00
2018-04-14T02:32:52.826Z,0.00
2018-04-14T02:33:52.804Z,0.00
2018-04-14T02:34:52.815Z,0.00
2018-04-14T02:35:52.811Z,0.00
2018-04-14T02:36:52.816Z,0.00
2018-04-14T02:37:52.797Z,0.00
2018-04-14T02:38:52.801Z,0.00
2018-04-14T02:39:52.809Z,0.00
2018-04-14T02:40:52.782Z,0.00
2018-04-14T02:44:36.824Z,0.00
2018-04-14T02:45:36.838Z,0.00
2018-04-14T02:46:36.807Z,0.00
2018-04-14T02:47:36.805Z,0.00
2018-04-14T02:48:36.798Z,0.00
2018-04-14T02:49:36.798Z,0.00
2018-04-14T02:50:36.999Z,0.00
2018-04-14T02:51:36.804Z,0.00
2018-04-14T02:52:36.789Z,0.00
2018-04-14T02:53:36.803Z,0.00
2018-04-14T02:54:36.792Z,0.00
2018-04-14T02:55:36.777Z,0.00
2018-04-14T02:56:36.795Z,0.00
2018-04-14T02:57:36.776Z,0.00
2018-04-14T02:58:36.769Z,0.00
2018-04-14T02:59:36.767Z,0.00
2018-04-14T03:00:36.766Z,0.00
2018-04-14T03:01:36.764Z,0.00
2018-04-14T03:02:36.772Z,0.00
2018-04-14T03:03:36.756Z,0.00
2018-04-14T03:04:36.762Z,0.00
2018-04-14T03:05:36.748Z,0.00
2018-04-14T03:06:36.746Z,0.00
2018-04-14T03:07:36.742Z,0.00
2018-04-14T03:08:36.740Z,0.00
2018-04-14T03:09:36.737Z,0.00
2018-04-14T03:10:36.733Z,0.00
2018-04-14T03:11:36.731Z,0.00
2018-04-14T03:12:36.730Z,0.00
2018-04-14T03:13:36.724Z,0.00
2018-04-14T03:14:36.722Z,0.00
2018-04-14T03:15:36.725Z,0.00
2018-04-14T03:16:36.725Z,0.00
2018-04-14T03:17:36.714Z,0.00
2018-04-14T03:18:36.713Z,0.00
2018-04-14T03:19:36.705Z,0.00
2018-04-14T03:20:36.715Z,0.00
2018-04-14T03:21:36.704Z,0.00
2018-04-14T03:22:36.696Z,0.00
2018-04-14T03:23:36.692Z,0.00
2018-04-14T03:24:36.693Z,0.00
2018-04-14T03:25:36.689Z,0.00
2018-04-14T03:26:36.687Z,0.00
2018-04-14T03:27:36.707Z,0.00
2018-04-14T03:28:36.678Z,0.00
2018-04-14T03:29:36.676Z,0.00
2018-04-14T03:30:36.680Z,0.00
2018-04-14T03:31:36.873Z,0.00
2018-04-14T03:32:36.700Z,0.00
2018-04-14T03:33:36.662Z,0.00
2018-04-14T03:34:36.683Z,0.00
2018-04-14T03:35:36.667Z,0.00
2018-04-14T03:36:36.652Z,0.00
2018-04-14T03:37:36.664Z,0.00
2018-04-14T03:38:36.645Z,0.00
2018-04-14T03:39:36.640Z,0.00
2018-04-14T03:40:36.639Z,0.00
2018-04-14T03:41:36.634Z,0.00
2018-04-14T03:42:36.632Z,0.00
2018-04-14T03:43:36.639Z,0.00
2018-04-14T03:44:36.630Z,0.00
2018-04-14T03:45:36.623Z,0.00
2018-04-14T03:46:36.641Z,0.00
2018-04-14T03:47:36.615Z,0.00
2018-04-14T03:48:36.611Z,0.00
2018-04-14T03:49:36.608Z,0.00
2018-04-14T03:50:36.602Z,0.00
2018-04-14T03:51:36.612Z,0.00
2018-04-14T03:52:36.602Z,0.00
2018-04-14T03:53:36.595Z,0.00
2018-04-14T03:54:36.589Z,0.00
2018-04-14T03:55:36.585Z,0.00
2018-04-14T03:56:36.582Z,0.00
2018-04-14T03:57:36.581Z,0.00
2018-04-14T03:58:36.574Z,0.00
2018-04-14T03:59:36.570Z,0.00
2018-04-14T04:00:36.571Z,0.00
2018-04-14T04:01:36.769Z,0.00
2018-04-14T04:02:36.560Z,0.00
2018-04-14T04:03:36.557Z,0.00
2018-04-14T04:04:36.558Z,0.00
2018-04-14T04:05:36.549Z,0.00
2018-04-14T04:06:36.547Z,0.00
2018-04-14T04:07:36.542Z,0.00
2018-04-14T04:08:36.543Z,0.00
2018-04-14T04:09:36.536Z,0.00
2018-04-14T04:10:36.544Z,0.00
2018-04-14T04:11:36.549Z,0.00
2018-04-14T04:12:36.526Z,0.00
2018-04-14T04:13:36.522Z,0.00
2018-04-14T04:14:36.528Z,0.00
2018-04-14T04:15:36.560Z,0.00
2018-04-14T04:16:36.512Z,0.00
2018-04-14T04:17:36.509Z,0.00
2018-04-14T04:18:36.503Z,0.00
2018-04-14T04:19:36.500Z,0.00
2018-04-14T04:20:36.496Z,0.00
2018-04-14T04:21:36.493Z,0.00
2018-04-14T04:22:36.492Z,0.00
2018-04-14T04:23:36.486Z,0.00
2018-04-14T04:24:36.486Z,0.00
2018-04-14T04:25:36.478Z,0.00
2018-04-14T04:26:36.475Z,0.00
2018-04-14T04:27:36.470Z,0.00
2018-04-14T04:28:36.477Z,0.00
2018-04-14T04:29:36.467Z,0.00
2018-04-14T04:30:36.460Z,0.00
2018-04-14T04:31:36.455Z,0.00
2018-04-14T04:32:36.454Z,0.00
2018-04-14T04:33:36.466Z,0.00
2018-04-14T04:34:36.461Z,0.00
2018-04-14T04:35:36.462Z,0.00
2018-04-14T04:36:36.440Z,0.00
2018-04-14T04:37:36.437Z,0.00
2018-04-14T04:38:36.433Z,0.00
2018-04-14T04:39:36.429Z,0.00
2018-04-14T04:40:36.427Z,0.00
2018-04-14T04:41:36.426Z,0.00
2018-04-14T04:42:36.423Z,0.00
2018-04-14T04:43:36.416Z,0.00
2018-04-14T04:44:36.417Z,0.00
2018-04-14T04:45:36.427Z,0.00
2018-04-14T04:46:36.415Z,0.00
2018-04-14T04:47:36.406Z,0.00
2018-04-14T04:48:36.398Z,0.00
2018-04-14T04:49:36.401Z,0.00
2018-04-14T04:50:36.394Z,0.00
2018-04-14T04:51:36.433Z,0.00
2018-04-14T04:52:36.388Z,0.00
2018-04-14T04:53:36.407Z,0.00
2018-04-14T04:54:36.381Z,0.00
2018-04-14T04:55:36.378Z,0.00
2018-04-14T04:56:36.386Z,0.00
2018-04-14T04:57:36.371Z,0.00
2018-04-14T04:58:36.370Z,0.00
2018-04-14T04:59:36.365Z,0.00
2018-04-14T05:00:36.360Z,0.00
2018-04-14T05:01:36.381Z,0.00
2018-04-14T05:02:36.366Z,0.00
2018-04-14T05:03:36.350Z,0.00
2018-04-14T05:04:36.344Z,0.00
2018-04-14T05:05:36.548Z,0.00
2018-04-14T05:06:36.553Z,0.00
2018-04-14T05:07:36.345Z,0.00
2018-04-14T05:08:36.348Z,0.00
2018-04-14T05:09:36.331Z,0.00
2018-04-14T05:10:36.342Z,5.63
2018-04-14T05:11:36.333Z,5.63
2018-04-14T05:12:36.523Z,5.63
2018-04-14T05:13:36.319Z,5.63
2018-04-14T05:14:36.312Z,5.63
2018-04-14T05:15:36.310Z,5.63
2018-04-14T05:16:36.511Z,5.63
2018-04-14T05:17:36.509Z,5.63
2018-04-14T05:18:36.308Z,5.63
2018-04-14T05:19:36.505Z,5.63
2018-04-14T05:20:36.510Z,5.63
2018-04-14T05:21:36.290Z,5.63
2018-04-14T05:22:36.307Z,5.63
2018-04-14T05:23:36.282Z,5.63
2018-04-14T05:24:36.281Z,5.63
2018-04-14T05:25:36.278Z,11.25
2018-04-14T05:26:36.289Z,11.25
2018-04-14T05:27:36.271Z,11.25
2018-04-14T05:28:36.282Z,11.25
2018-04-14T05:29:36.283Z,11.25
2018-04-14T05:30:36.260Z,11.25
2018-04-14T05:31:36.260Z,11.25
2018-04-14T05:32:36.265Z,11.25
2018-04-14T05:33:36.250Z,16.88
2018-04-14T05:34:36.250Z,16.88
2018-04-14T05:35:36.254Z,16.88
2018-04-14T05:36:36.256Z,16.88
2018-04-14T05:37:36.241Z,16.88
2018-04-14T05:38:36.237Z,16.88
2018-04-14T05:39:36.231Z,11.25
2018-04-14T05:40:36.232Z,11.25
2018-04-14T05:41:36.229Z,11.25
2018-04-14T05:42:36.222Z,11.25
2018-04-14T05:43:36.221Z,11.25
2018-04-14T05:44:36.216Z,11.25
2018-04-14T05:45:36.213Z,11.25
2018-04-14T05:46:36.223Z,11.25
2018-04-14T05:47:36.207Z,11.25
2018-04-14T05:48:36.210Z,11.25
2018-04-14T05:49:36.202Z,11.25
2018-04-14T05:50:36.400Z,11.25
2018-04-14T05:51:36.204Z,11.25
2018-04-14T05:52:36.197Z,11.25
2018-04-14T05:53:36.189Z,11.25
2018-04-14T05:54:36.187Z,11.25
2018-04-14T05:55:36.187Z,16.88
2018-04-14T05:56:36.183Z,16.88
2018-04-14T05:57:36.197Z,16.88
2018-04-14T05:58:36.183Z,16.88
2018-04-14T05:59:36.171Z,16.88
2018-04-14T06:00:36.179Z,22.50
2018-04-14T06:01:36.179Z,22.50
2018-04-14T06:02:36.200Z,22.50
2018-04-14T06:03:36.172Z,28.13
2018-04-14T06:04:36.157Z,28.13
2018-04-14T06:05:36.191Z,22.50
2018-04-14T06:06:36.186Z,22.50
2018-04-14T06:07:36.163Z,22.50
2018-04-14T06:08:36.158Z,22.50
2018-04-14T06:09:36.166Z,22.50
2018-04-14T06:10:36.178Z,22.50
2018-04-14T06:11:36.208Z,22.50
2018-04-14T06:12:36.156Z,22.50
2018-04-14T06:13:36.142Z,22.50
2018-04-14T06:14:36.128Z,22.50
2018-04-14T06:15:36.158Z,22.50
2018-04-14T06:16:36.121Z,22.50
2018-04-14T06:17:36.116Z,22.50
2018-04-14T06:18:36.114Z,22.50
2018-04-14T06:19:36.150Z,22.50
2018-04-14T06:20:36.123Z,28.13
2018-04-14T06:21:36.106Z,28.13
2018-04-14T06:22:36.114Z,33.75
2018-04-14T06:23:36.100Z,39.38
2018-04-14T06:24:36.094Z,45.00
2018-04-14T06:25:36.096Z,56.25
2018-04-14T06:26:36.089Z,61.88
2018-04-14T06:27:36.094Z,67.50
2018-04-14T06:28:36.097Z,73.13
2018-04-14T06:29:36.082Z,61.88
2018-04-14T06:30:36.078Z,56.25
2018-04-14T06:31:36.076Z,56.25
2018-04-14T06:32:36.146Z,73.13
2018-04-14T06:33:36.080Z,61.88
2018-04-14T06:34:36.069Z,61.88
2018-04-14T06:35:36.063Z,61.88
2018-04-14T06:36:36.080Z,67.50
2018-04-14T06:37:36.058Z,73.13
2018-04-14T06:38:36.053Z,73.13
2018-04-14T06:39:36.050Z,78.75
2018-04-14T06:40:36.251Z,78.75
2018-04-14T06:41:36.045Z,67.50
2018-04-14T06:42:36.041Z,56.25
2018-04-14T06:43:36.041Z,50.63
2018-04-14T06:44:36.038Z,50.63
2018-04-14T06:45:36.035Z,45.00
2018-04-14T06:46:36.250Z,45.00
2018-04-14T06:47:36.029Z,45.00
2018-04-14T06:48:36.026Z,45.00
2018-04-14T06:49:36.229Z,50.63
2018-04-14T06:50:36.021Z,50.63
2018-04-14T06:51:36.021Z,45.00
2018-04-14T06:52:36.028Z,45.00
2018-04-14T06:53:36.016Z,56.25
2018-04-14T06:54:36.022Z,56.25
2018-04-14T06:55:36.013Z,73.13
2018-04-14T06:56:36.030Z,73.13
2018-04-14T06:57:36.018Z,78.75
2018-04-14T06:58:36.005Z,84.38
2018-04-14T06:59:35.999Z,78.75
2018-04-14T07:00:36.216Z,78.75
2018-04-14T07:01:36.200Z,84.38
2018-04-14T07:02:35.991Z,90.00
2018-04-14T07:03:35.994Z,90.00
2018-04-14T07:04:36.041Z,84.38
2018-04-14T07:05:35.999Z,84.38
2018-04-14T07:06:35.983Z,118.13
2018-04-14T07:07:35.992Z,118.13
2018-04-14T07:08:35.978Z,140.63
2018-04-14T07:09:35.990Z,157.50
2018-04-14T07:10:35.973Z,106.88
2018-04-14T07:11:35.995Z,129.38
2018-04-14T07:12:36.187Z,151.88
2018-04-14T07:13:35.984Z,202.50
2018-04-14T07:14:35.982Z,208.13
2018-04-14T07:15:35.992Z,253.13
2018-04-14T07:16:35.963Z,225.00
2018-04-14T07:17:35.964Z,180.00
2018-04-14T07:18:35.969Z,168.75
2018-04-14T07:19:35.952Z,202.50
2018-04-14T07:20:35.983Z,264.38
2018-04-14T07:21:35.954Z,320.63
2018-04-14T07:22:35.953Z,337.50
2018-04-14T07:23:35.945Z,326.25
2018-04-14T07:24:35.954Z,348.75
2018-04-14T07:25:35.945Z,303.75
2018-04-14T07:26:35.956Z,236.25
2018-04-14T07:27:35.945Z,326.25
2018-04-14T07:28:35.949Z,348.75
2018-04-14T07:29:35.956Z,371.25
2018-04-14T07:30:35.934Z,348.75
2018-04-14T07:31:35.936Z,348.75
2018-04-14T07:32:36.138Z,309.38
2018-04-14T07:33:36.145Z,253.13
2018-04-14T07:34:35.940Z,225.00
2018-04-14T07:35:36.141Z,213.75
2018-04-14T07:36:36.161Z,208.13
2018-04-14T07:37:35.951Z,168.75
2018-04-14T07:38:35.924Z,163.13
2018-04-14T07:39:35.928Z,168.75
2018-04-14T07:40:35.921Z,163.13
2018-04-14T07:41:35.945Z,151.88
2018-04-14T07:42:35.921Z,157.50
2018-04-14T07:43:35.928Z,146.25
2018-04-14T07:44:35.923Z,123.75
2018-04-14T07:45:35.927Z,129.38
2018-04-14T07:46:36.120Z,151.88
2018-04-14T07:47:36.118Z,168.75
2018-04-14T07:48:35.910Z,174.38
2018-04-14T07:49:35.932Z,174.38
2018-04-14T07:50:35.906Z,191.25
2018-04-14T07:51:35.957Z,185.63
2018-04-14T07:52:35.908Z,191.25
2018-04-14T07:53:36.111Z,191.25
2018-04-14T07:54:35.903Z,196.88
2018-04-14T07:55:35.928Z,196.88
2018-04-14T07:56:35.910Z,208.13
2018-04-14T07:57:35.914Z,253.13
2018-04-14T07:58:35.900Z,264.38
2018-04-14T07:59:35.910Z,298.13
2018-04-14T08:00:36.100Z,292.50
2018-04-14T08:01:35.909Z,258.75
2018-04-14T08:02:35.896Z,292.50
2018-04-14T08:03:35.921Z,433.13
2018-04-14T08:04:35.890Z,360.00
2018-04-14T08:05:35.903Z,309.38
2018-04-14T08:06:35.893Z,410.63
2018-04-14T08:07:35.887Z,410.63
2018-04-14T08:08:35.890Z,292.50
2018-04-14T08:09:35.893Z,213.75
2018-04-14T08:10:35.884Z,230.63
2018-04-14T08:11:35.936Z,236.25
2018-04-14T08:12:35.884Z,236.25
2018-04-14T08:13:36.099Z,253.13
2018-04-14T08:14:35.894Z,326.25
2018-04-14T08:15:35.882Z,371.25
2018-04-14T08:16:35.897Z,247.50
2018-04-14T08:17:36.098Z,168.75
2018-04-14T08:18:35.914Z,146.25
2018-04-14T08:19:35.882Z,191.25
2018-04-14T08:20:35.892Z,140.63
2018-04-14T08:21:35.909Z,135.00
2018-04-14T08:22:35.889Z,135.00
2018-04-14T08:23:36.095Z,129.38
2018-04-14T08:24:35.877Z,123.75
2018-04-14T08:25:36.089Z,112.50
2018-04-14T08:26:35.882Z,95.63
2018-04-14T08:27:35.875Z,78.75
2018-04-14T08:28:35.881Z,78.75
2018-04-14T08:29:35.877Z,73.13
2018-04-14T08:30:35.886Z,73.13
2018-04-14T08:31:35.870Z,67.50
2018-04-14T08:32:35.870Z,67.50
2018-04-14T08:33:35.867Z,61.88
2018-04-14T08:34:35.865Z,56.25
2018-04-14T08:35:35.864Z,56.25
2018-04-14T08:36:36.070Z,61.88
2018-04-14T08:37:35.861Z,67.50
2018-04-14T08:38:35.862Z,67.50
2018-04-14T08:39:35.871Z,61.88
2018-04-14T08:40:36.063Z,61.88
2018-04-14T08:41:35.859Z,56.25
2018-04-14T08:42:35.858Z,56.25
2018-04-14T08:43:35.854Z,56.25
2018-04-14T08:44:35.850Z,61.88
2018-04-14T08:45:35.853Z,67.50
2018-04-14T08:46:35.847Z,78.75
2018-04-14T08:47:35.846Z,84.38
2018-04-14T08:48:35.846Z,118.13
2018-04-14T08:49:35.857Z,135.00
2018-04-14T08:50:35.842Z,140.63
2018-04-14T08:51:35.843Z,151.88
2018-04-14T08:52:35.840Z,123.75
2018-04-14T08:53:35.838Z,140.63
2018-04-14T08:54:35.845Z,151.88
2018-04-14T08:55:35.834Z,135.00
2018-04-14T08:56:35.835Z,135.00
2018-04-14T08:57:35.830Z,118.13
2018-04-14T08:58:35.830Z,106.88
2018-04-14T08:59:35.827Z,106.88
2018-04-14T09:00:35.828Z,101.25
2018-04-14T09:01:35.843Z,90.00
2018-04-14T09:02:36.031Z,84.38
2018-04-14T09:03:35.821Z,78.75
2018-04-14T09:04:35.832Z,73.13
2018-04-14T09:05:35.833Z,61.88
2018-04-14T09:06:35.838Z,61.88
2018-04-14T09:07:35.819Z,56.25
2018-04-14T09:08:35.815Z,56.25
2018-04-14T09:09:35.815Z,56.25
2018-04-14T09:10:35.812Z,56.25
2018-04-14T09:11:35.811Z,67.50
2018-04-14T09:12:35.808Z,101.25
2018-04-14T09:13:35.829Z,129.38
2018-04-14T09:14:35.829Z,146.25
2018-04-14T09:15:35.805Z,140.63
2018-04-14T09:16:36.011Z,135.00
2018-04-14T09:17:35.815Z,135.00
2018-04-14T09:18:35.800Z,123.75
2018-04-14T09:19:35.816Z,118.13
2018-04-14T09:20:35.810Z,123.75
2018-04-14T09:21:35.797Z,106.88
2018-04-14T09:22:35.798Z,112.50
2018-04-14T09:23:35.809Z,129.38
2018-04-14T09:24:35.795Z,118.13
2018-04-14T09:25:35.812Z,106.88
2018-04-14T09:26:35.813Z,101.25
2018-04-14T09:27:35.789Z,101.25
2018-04-14T09:28:35.800Z,112.50
2018-04-14T09:29:35.991Z,123.75
2018-04-14T09:30:35.786Z,123.75
2018-04-14T09:31:35.794Z,123.75
2018-04-14T09:32:35.779Z,112.50
2018-04-14T09:33:35.793Z,106.88
2018-04-14T09:34:35.775Z,101.25
2018-04-14T09:35:35.777Z,101.25
2018-04-14T09:36:36.004Z,95.63
2018-04-14T09:37:35.775Z,95.63
2018-04-14T09:38:35.773Z,90.00
2018-04-14T09:39:35.985Z,95.63
2018-04-14T09:40:35.779Z,95.63
2018-04-14T09:41:35.784Z,95.63
2018-04-14T09:42:35.776Z,101.25
2018-04-14T09:43:35.984Z,106.88
2018-04-14T09:44:35.765Z,95.63
2018-04-14T09:45:35.777Z,106.88
2018-04-14T09:46:35.774Z,106.88
2018-04-14T09:47:35.982Z,106.88
2018-04-14T09:48:35.758Z,112.50
2018-04-14T09:49:35.975Z,118.13
2018-04-14T09:50:35.756Z,123.75
2018-04-14T09:51:35.754Z,123.75
2018-04-14T09:52:35.768Z,129.38
2018-04-14T09:53:35.756Z,135.00
2018-04-14T09:54:35.764Z,135.00
2018-04-14T09:55:35.774Z,129.38
2018-04-14T09:56:35.762Z,129.38
2018-04-14T09:57:35.752Z,129.38
2018-04-14T09:58:35.744Z,129.38
2018-04-14T09:59:35.758Z,123.75
2018-04-14T10:00:35.745Z,129.38
2018-04-14T10:01:35.745Z,123.75
2018-04-14T10:02:35.741Z,123.75
2018-04-14T10:03:35.754Z,112.50
2018-04-14T10:04:35.750Z,106.88
2018-04-14T10:05:35.805Z,106.88
2018-04-14T10:06:35.953Z,84.38
2018-04-14T10:07:35.940Z,67.50
2018-04-14T10:08:35.745Z,50.63
2018-04-14T10:09:35.734Z,50.63
2018-04-14T10:10:35.754Z,45.00
2018-04-14T10:11:35.736Z,45.00
2018-04-14T10:12:35.730Z,45.00
2018-04-14T10:13:35.742Z,45.00
2018-04-14T10:14:35.933Z,39.38
2018-04-14T10:15:35.728Z,45.00
2018-04-14T10:16:35.943Z,39.38
2018-04-14T10:17:35.725Z,39.38
2018-04-14T10:18:35.723Z,39.38
2018-04-14T10:19:35.734Z,45.00
2018-04-14T10:20:35.722Z,50.63
2018-04-14T10:21:35.927Z,50.63
2018-04-14T10:22:35.719Z,45.00
2018-04-14T10:23:35.935Z,45.00
2018-04-14T10:24:35.716Z,45.00
2018-04-14T10:25:35.720Z,50.63
2018-04-14T10:26:35.736Z,56.25
2018-04-14T10:27:35.744Z,73.13
2018-04-14T10:28:35.715Z,73.13
2018-04-14T10:29:35.731Z,84.38
2018-04-14T10:30:35.720Z,90.00
2018-04-14T10:31:35.708Z,95.63
2018-04-14T10:32:35.708Z,101.25
2018-04-14T10:33:35.711Z,101.25
2018-04-14T10:34:35.705Z,101.25
2018-04-14T10:35:35.713Z,112.50
2018-04-14T10:36:35.705Z,112.50
2018-04-14T10:37:35.715Z,106.88
2018-04-14T10:38:35.716Z,95.63
2018-04-14T10:39:35.701Z,73.13
2018-04-14T10:40:35.712Z,61.88
2018-04-14T10:41:35.699Z,61.88
2018-04-14T10:42:35.706Z,73.13
2018-04-14T10:43:35.699Z,90.00
2018-04-14T10:44:35.720Z,101.25
2018-04-14T10:45:35.708Z,118.13
2018-04-14T10:46:35.727Z,123.75
2018-04-14T10:47:35.707Z,123.75
2018-04-14T10:48:35.696Z,112.50
2018-04-14T10:49:35.693Z,112.50
2018-04-14T10:50:35.893Z,106.88
2018-04-14T10:51:35.687Z,106.88
2018-04-14T10:52:35.687Z,101.25
2018-04-14T10:53:35.687Z,101.25
2018-04-14T10:54:35.687Z,101.25
2018-04-14T10:55:35.686Z,101.25
2018-04-14T10:56:35.888Z,101.25
2018-04-14T10:57:35.687Z,101.25
2018-04-14T10:58:35.680Z,95.63
2018-04-14T10:59:35.686Z,78.75
2018-04-14T11:00:35.679Z,67.50
2018-04-14T11:01:35.694Z,78.75
2018-04-14T11:02:35.688Z,90.00
2018-04-14T11:03:35.680Z,90.00
2018-04-14T11:04:35.878Z,90.00
2018-04-14T11:05:35.674Z,90.00
2018-04-14T11:06:35.673Z,95.63
2018-04-14T11:07:35.895Z,90.00
2018-04-14T11:08:35.682Z,90.00
2018-04-14T11:09:35.687Z,84.38
2018-04-14T11:10:35.670Z,78.75
2018-04-14T11:11:35.670Z,73.13
2018-04-14T11:12:35.667Z,67.50
2018-04-14T11:13:35.672Z,61.88
2018-04-14T11:14:35.683Z,61.88
2018-04-14T11:15:35.665Z,67.50
2018-04-14T11:16:35.662Z,67.50
2018-04-14T11:17:35.661Z,73.13
2018-04-14T11:18:35.661Z,67.50
2018-04-14T11:19:35.672Z,67.50
2018-04-14T11:20:35.687Z,73.13
2018-04-14T11:21:35.660Z,73.13
2018-04-14T11:22:35.664Z,78.75
2018-04-14T11:23:35.654Z,84.38
2018-04-14T11:24:35.666Z,78.75
2018-04-14T11:25:35.653Z,73.13
2018-04-14T11:26:35.651Z,67.50
2018-04-14T11:27:35.648Z,56.25
2018-04-14T11:28:35.852Z,67.50
2018-04-14T11:29:35.648Z,67.50
2018-04-14T11:30:35.645Z,73.13
2018-04-14T11:31:35.645Z,73.13
2018-04-14T11:32:35.643Z,73.13
2018-04-14T11:33:35.641Z,73.13
2018-04-14T11:34:35.655Z,73.13
2018-04-14T11:35:35.854Z,67.50
2018-04-14T11:36:35.649Z,67.50
2018-04-14T11:37:35.660Z,67.50
2018-04-14T11:38:35.655Z,67.50
2018-04-14T11:39:35.646Z,61.88
2018-04-14T11:40:35.633Z,61.88
2018-04-14T11:41:35.652Z,61.88
2018-04-14T11:42:35.638Z,61.88
2018-04-14T11:43:35.831Z,56.25
2018-04-14T11:44:35.628Z,56.25
2018-04-14T11:45:35.626Z,56.25
2018-04-14T11:46:35.634Z,56.25
2018-04-14T11:47:35.624Z,56.25
2018-04-14T11:48:35.826Z,56.25
2018-04-14T11:49:35.621Z,56.25
2018-04-14T11:50:35.639Z,56.25
2018-04-14T11:51:35.620Z,56.25
2018-04-14T11:52:35.627Z,56.25
2018-04-14T11:53:35.832Z,50.63
2018-04-14T11:54:35.616Z,45.00
2018-04-14T11:55:35.625Z,45.00
2018-04-14T11:56:35.626Z,45.00
2018-04-14T11:57:35.616Z,45.00
2018-04-14T11:58:35.610Z,45.00
2018-04-14T11:59:35.624Z,45.00
2018-04-14T12:00:35.608Z,45.00
2018-04-14T12:01:35.811Z,45.00
2018-04-14T12:02:35.608Z,45.00
2018-04-14T12:03:35.616Z,45.00
2018-04-14T12:04:35.604Z,45.00
2018-04-14T12:05:35.818Z,39.38
2018-04-14T12:06:35.605Z,39.38
2018-04-14T12:07:35.617Z,33.75
2018-04-14T12:08:35.817Z,33.75
2018-04-14T12:09:35.599Z,33.75
2018-04-14T12:10:35.600Z,33.75
2018-04-14T12:11:35.597Z,33.75
2018-04-14T12:12:35.598Z,39.38
2018-04-14T12:13:35.607Z,39.38
2018-04-14T12:14:35.611Z,39.38
2018-04-14T12:15:35.606Z,39.38
2018-04-14T12:16:35.603Z,45.00
2018-04-14T12:17:35.598Z,45.00
2018-04-14T12:18:35.591Z,50.63
2018-04-14T12:19:35.590Z,50.63
2018-04-14T12:20:35.604Z,50.63
2018-04-14T12:21:35.590Z,50.63
2018-04-14T12:22:35.630Z,50.63
2018-04-14T12:23:35.599Z,50.63
2018-04-14T12:24:35.790Z,50.63
2018-04-14T12:25:35.586Z,50.63
2018-04-14T12:26:35.806Z,45.00
2018-04-14T12:27:35.608Z,45.00
2018-04-14T12:28:35.592Z,45.00
2018-04-14T12:29:35.595Z,45.00
2018-04-14T12:30:35.580Z,45.00
2018-04-14T12:31:35.582Z,45.00
2018-04-14T12:32:35.586Z,45.00
2018-04-14T12:33:35.583Z,45.00
2018-04-14T12:34:35.847Z,45.00
2018-04-14T12:35:35.795Z,45.00
2018-04-14T12:36:35.780Z,45.00
2018-04-14T12:37:35.576Z,39.38
2018-04-14T12:38:35.587Z,33.75
2018-04-14T12:39:35.572Z,33.75
2018-04-14T12:40:35.587Z,28.13
2018-04-14T12:41:35.581Z,33.75
2018-04-14T12:42:35.786Z,33.75
2018-04-14T12:43:35.777Z,39.38
2018-04-14T12:44:35.595Z,39.38
2018-04-14T12:45:35.577Z,45.00
2018-04-14T12:46:35.570Z,45.00
2018-04-14T12:47:35.566Z,45.00
2018-04-14T12:48:35.567Z,45.00
2018-04-14T12:49:35.590Z,45.00
2018-04-14T12:50:35.767Z,45.00
2018-04-14T12:51:35.560Z,45.00
2018-04-14T12:52:35.571Z,45.00
2018-04-14T12:53:35.577Z,45.00
2018-04-14T12:54:35.560Z,45.00
2018-04-14T12:55:35.567Z,45.00
2018-04-14T12:56:35.563Z,39.38
2018-04-14T12:57:35.569Z,39.38
2018-04-14T12:58:35.566Z,39.38
2018-04-14T12:59:35.569Z,39.38
2018-04-14T13:00:35.570Z,39.38